Cortez, CO

3:14 PM MDT on September 04, 2015 (GMT -0600)
Cortez Municipal | | Change Station
CLOSE
Current Station
Airport
Location: Cortez,
Elevation: 5915 ft
Nearby Weather Stations

Elev 5915 ft 37.31 °N, 108.63 °W | Updated 21 minutes ago

Rain
Rain
72 °F
Feels Like 72 °F
N
8
Wind Variable Wind from SSE
Gusts 22 mph

Today
High -- | Low -- °F
--% Chance of Precip.
Yesterday
High -- | Low -- °F
Precip. -- in
6:47 AM 7:39 PM
Waning Gibbous, 56% visible
Pressure 29.88 in
Visibility 10.0 miles
Clouds Few 4400 ft
Mostly Cloudy 7500 ft
Overcast 10000 ft
Dew Point 54 °F
Humidity 53%
Rainfall 0.01 in
Snow Depth Not available.
UV 3 out of 12
Pollen 6.70 out of 12
Air Quality Not available.
Flu Activity Not available.
METAR KCEZ 042053Z AUTO 16007G19KT 10SM -RA FEW044 BKN075 OVC100 22/12 A3009 RMK AO2 LTG DSNT N RAE03B45 SLP118 P0000 60001 T02220122 56011
Pressure 29.88 in
Visibility 10.0 miles
Clouds Few 4400 ft
Mostly Cloudy 7500 ft
Overcast 10000 ft
Dew Point 54 °F
Humidity 53%
Rainfall 0.01 in
Snow Depth Not available.
UV 3 out of 12
Pollen 6.70 out of 12
Air Quality Not available.
Flu Activity Not available.
METAR KCEZ 042053Z AUTO 16007G19KT 10SM -RA FEW044 BKN075 OVC100 22/12 A3009 RMK AO2 LTG DSNT N RAE03B45 SLP118 P0000 60001 T02220122 56011

10-Day Weather Forecast

×

Almanac

Astronomy

Sep. 04, 2015 Rise Set
Actual Time
Civil Twilight
Nautical Twilight
Astronomical Twilight
Moon
Length of Visible Light
Length of Day
Tomorrow will be .
, % of the Moon is Illuminated

Today's Extremes

State Highs State Lows

Community

WunderPhotos

Upload Photos

1,852,296 photos uploaded!

WunderBlogs® & News

Nearby

Air Quality

  Air Quality AQ Index Pollutant
Not available.

Snow Depth

Station Depth Elevation

Earthquake Activity

City Distance Mag. Time & Date
Minimum magnitude displayed is 2.5.

Coastal Water Temperatures

Place Temperature

Stations

Nearby Weather Stations

Station Location Temp. Windchill Dew Point Humidity Wind Precip. Elev Updated Type